New Castle, Indiana
Current Conditions -  °F | °C
As of 5:53 PM on Friday 28 Nov 2014 (Local Time) from KMIE Reporting Station
Clear Clear  
Wind Chill: 23°   Ceiling: Unl
Heat Index: 32°   Visibility: 10mi
Dew Point: 17°   Wind: 12mph
Humidity: 54%   Direction: 170°S
Pressure: 30.08"   Gusts: 21mph
Location:  39.93°N, 85.37°W
Report Text: KMIE 282253Z 17010G18KT 10SM CLR 00/M08 A3008 RMK AO2 SLP195 T00001083
Loading
Personal Weather Stations






























Interactive Weather Map New forecast layout! Learn more

10-Day Weather Forecast

Advertisements
Track Severe Weather on mobile